Main page
METAR-TAF:

METAR-TAF

Airports :

Tuzla International Airport

Tuzla, Bosnia and Herzegovina

latitude: 44-33N, longitude: 018-42E, elevation: 306 m

Current weather observation

The report was made 17 minutes ago, at 18:00 UTC
Wind 2 kt from variable directions
Temperature 9°C
Humidity 66%
Pressure 1019 hPa
Visibility 10 km or more
no clouds below 1500 m and no cumulonimbus

METAR: LQTZ 171800Z VRB02KT CAVOK 09/03 Q1019

Time: 19:17 (18:17 UTC)

Forecast

The report was made 1 hour and 17 minutes ago, at 17:00 UTC
Forecast valid from 17 at 18 UTC to 18 at 18 UTC
Wind 2 kt from variable directions
Visibility 10 km or more
no clouds below 1500 m and no cumulonimbus
Temporary
from 18 at 04 UTC to 18 at 08 UTC
Visibility: 3000 m
mist
Temporary
from 18 at 09 UTC to 18 at 18 UTC
Wind 10 kt from the North/Northwest

TAF: LQTZ 171700Z 1718/1818 VRB02KT CAVOK TX13/1813Z TN02/1806Z TEMPO 1804/1808 3000 BR TEMPO 1809/1818 33010KT

Weather observations and forecasts of more than 4000 airports (METAR and TAF reports).

The available stations are represented by yellow and red dots on the map.

Hover mouse over dot to see the name of the station.

Then click to see weather observations and forecasts.

To change the map : click on the green buttons with a black cross to zoom in, on the green button with a dash to zoom out, or on the green arrows for adjacent maps.


METAR-TAF: